sensor_id;sensor_type;location;lat;lon;timestamp;temperature;humidity
56256;DHT22;57229;51.432;-2.598;2022-07-29T00:01:07;15.40;99.90
56256;DHT22;57229;51.432;-2.598;2022-07-29T00:03:33;15.40;99.90
56256;DHT22;57229;51.432;-2.598;2022-07-29T00:05:58;15.30;99.90
56256;DHT22;57229;51.432;-2.598;2022-07-29T00:08:24;15.30;99.90
56256;DHT22;57229;51.432;-2.598;2022-07-29T00:10:50;15.30;99.90
56256;DHT22;57229;51.432;-2.598;2022-07-29T00:13:15;15.30;99.90
56256;DHT22;57229;51.432;-2.598;2022-07-29T00:15:41;15.20;99.90
56256;DHT22;57229;51.432;-2.598;2022-07-29T00:18:07;15.20;99.90
56256;DHT22;57229;51.432;-2.598;2022-07-29T00:20:32;15.20;99.90
56256;DHT22;57229;51.432;-2.598;2022-07-29T00:22:58;15.20;99.90
56256;DHT22;57229;51.432;-2.598;2022-07-29T00:25:24;15.20;99.90
56256;DHT22;57229;51.432;-2.598;2022-07-29T00:27:50;15.10;99.90
56256;DHT22;57229;51.432;-2.598;2022-07-29T00:30:15;15.10;99.90
56256;DHT22;57229;51.432;-2.598;2022-07-29T00:32:41;15.00;99.90
56256;DHT22;57229;51.432;-2.598;2022-07-29T00:35:07;15.00;99.90
56256;DHT22;57229;51.432;-2.598;2022-07-29T00:37:52;15.00;99.90
56256;DHT22;57229;51.432;-2.598;2022-07-29T00:40:18;15.00;99.90
56256;DHT22;57229;51.432;-2.598;2022-07-29T00:42:45;15.10;99.90
56256;DHT22;57229;51.432;-2.598;2022-07-29T00:45:12;15.20;99.90
56256;DHT22;57229;51.432;-2.598;2022-07-29T00:47:38;15.20;99.90
56256;DHT22;57229;51.432;-2.598;2022-07-29T00:50:05;15.20;99.90
56256;DHT22;57229;51.432;-2.598;2022-07-29T00:52:33;15.20;99.90
56256;DHT22;57229;51.432;-2.598;2022-07-29T00:55:03;15.20;99.90
56256;DHT22;57229;51.432;-2.598;2022-07-29T00:57:29;15.10;99.90
56256;DHT22;57229;51.432;-2.598;2022-07-29T00:59:54;15.10;99.90
56256;DHT22;57229;51.432;-2.598;2022-07-29T01:02:21;15.10;99.90
56256;DHT22;57229;51.432;-2.598;2022-07-29T01:04:47;15.10;99.90
56256;DHT22;57229;51.432;-2.598;2022-07-29T01:07:13;15.00;99.90
56256;DHT22;57229;51.432;-2.598;2022-07-29T01:09:39;15.00;99.90
56256;DHT22;57229;51.432;-2.598;2022-07-29T01:12:06;15.00;99.90
56256;DHT22;57229;51.432;-2.598;2022-07-29T01:14:32;15.00;99.90
56256;DHT22;57229;51.432;-2.598;2022-07-29T01:17:23;14.90;99.90
56256;DHT22;57229;51.432;-2.598;2022-07-29T01:20:55;15.00;99.90
56256;DHT22;57229;51.432;-2.598;2022-07-29T01:30:29;14.80;99.90
56256;DHT22;57229;51.432;-2.598;2022-07-29T01:33:01;14.80;99.90
56256;DHT22;57229;51.432;-2.598;2022-07-29T01:35:33;14.80;99.90
56256;DHT22;57229;51.432;-2.598;2022-07-29T01:38:09;14.80;99.90
56256;DHT22;57229;51.432;-2.598;2022-07-29T01:40:52;14.80;99.90
56256;DHT22;57229;51.432;-2.598;2022-07-29T01:43:23;14.80;99.90
56256;DHT22;57229;51.432;-2.598;2022-07-29T01:46:05;14.70;99.90
56256;DHT22;57229;51.432;-2.598;2022-07-29T01:51:19;14.60;99.90
56256;DHT22;57229;51.432;-2.598;2022-07-29T01:54:13;14.60;99.90
56256;DHT22;57229;51.432;-2.598;2022-07-29T01:56:40;14.50;99.90
56256;DHT22;57229;51.432;-2.598;2022-07-29T01:59:08;14.40;99.90
56256;DHT22;57229;51.432;-2.598;2022-07-29T02:01:35;14.30;99.90
56256;DHT22;57229;51.432;-2.598;2022-07-29T02:04:07;14.30;99.90
56256;DHT22;57229;51.432;-2.598;2022-07-29T02:06:37;14.30;99.90
56256;DHT22;57229;51.432;-2.598;2022-07-29T02:09:04;14.30;99.90
56256;DHT22;57229;51.432;-2.598;2022-07-29T02:11:33;14.20;99.90
56256;DHT22;57229;51.432;-2.598;2022-07-29T02:14:01;14.20;99.90
56256;DHT22;57229;51.432;-2.598;2022-07-29T02:16:30;14.10;99.90
56256;DHT22;57229;51.432;-2.598;2022-07-29T02:18:57;14.10;99.90
56256;DHT22;57229;51.432;-2.598;2022-07-29T02:21:25;14.10;99.90
56256;DHT22;57229;51.432;-2.598;2022-07-29T02:23:53;14.00;99.90
56256;DHT22;57229;51.432;-2.598;2022-07-29T02:26:22;14.00;99.90
56256;DHT22;57229;51.432;-2.598;2022-07-29T02:28:51;14.00;99.90
56256;DHT22;57229;51.432;-2.598;2022-07-29T02:31:19;14.10;99.90
56256;DHT22;57229;51.432;-2.598;2022-07-29T02:33:47;14.10;99.90
56256;DHT22;57229;51.432;-2.598;2022-07-29T02:36:13;14.10;99.90
56256;DHT22;57229;51.432;-2.598;2022-07-29T02:38:41;14.10;99.90
56256;DHT22;57229;51.432;-2.598;2022-07-29T02:41:33;14.10;99.90
56256;DHT22;57229;51.432;-2.598;2022-07-29T02:44:08;14.00;99.90
56256;DHT22;57229;51.432;-2.598;2022-07-29T02:46:36;13.90;99.90
56256;DHT22;57229;51.432;-2.598;2022-07-29T02:49:43;13.90;99.90
56256;DHT22;57229;51.432;-2.598;2022-07-29T02:52:03;13.90;99.90
56256;DHT22;57229;51.432;-2.598;2022-07-29T02:57:23;13.80;99.90
56256;DHT22;57229;51.432;-2.598;2022-07-29T02:59:52;13.70;99.90
56256;DHT22;57229;51.432;-2.598;2022-07-29T03:02:20;13.70;99.90
56256;DHT22;57229;51.432;-2.598;2022-07-29T03:04:48;13.60;99.90
56256;DHT22;57229;51.432;-2.598;2022-07-29T03:07:18;13.60;99.90
56256;DHT22;57229;51.432;-2.598;2022-07-29T03:09:45;13.60;99.90
56256;DHT22;57229;51.432;-2.598;2022-07-29T03:12:11;13.50;99.90
56256;DHT22;57229;51.432;-2.598;2022-07-29T03:14:38;13.50;99.90
56256;DHT22;57229;51.432;-2.598;2022-07-29T03:17:04;13.50;99.90
56256;DHT22;57229;51.432;-2.598;2022-07-29T03:19:31;13.50;99.90
56256;DHT22;57229;51.432;-2.598;2022-07-29T03:21:58;13.40;99.90
56256;DHT22;57229;51.432;-2.598;2022-07-29T03:24:32;13.40;99.90
56256;DHT22;57229;51.432;-2.598;2022-07-29T03:26:58;13.30;99.90
56256;DHT22;57229;51.432;-2.598;2022-07-29T03:29:25;13.30;99.90
56256;DHT22;57229;51.432;-2.598;2022-07-29T03:31:51;13.30;99.90
56256;DHT22;57229;51.432;-2.598;2022-07-29T03:34:17;13.40;99.90
56256;DHT22;57229;51.432;-2.598;2022-07-29T03:36:45;13.40;99.90
56256;DHT22;57229;51.432;-2.598;2022-07-29T03:39:15;13.40;99.90
56256;DHT22;57229;51.432;-2.598;2022-07-29T03:41:42;13.30;99.90
56256;DHT22;57229;51.432;-2.598;2022-07-29T03:44:09;13.30;99.90
56256;DHT22;57229;51.432;-2.598;2022-07-29T03:46:37;13.20;99.90
56256;DHT22;57229;51.432;-2.598;2022-07-29T03:49:05;13.20;99.90
56256;DHT22;57229;51.432;-2.598;2022-07-29T03:51:34;13.20;99.90
56256;DHT22;57229;51.432;-2.598;2022-07-29T03:54:03;13.20;99.90
56256;DHT22;57229;51.432;-2.598;2022-07-29T03:56:30;13.10;99.90
56256;DHT22;57229;51.432;-2.598;2022-07-29T03:58:58;13.10;99.90
56256;DHT22;57229;51.432;-2.598;2022-07-29T04:01:24;13.10;99.90
56256;DHT22;57229;51.432;-2.598;2022-07-29T04:03:51;13.00;99.90
56256;DHT22;57229;51.432;-2.598;2022-07-29T04:06:17;13.00;99.90
56256;DHT22;57229;51.432;-2.598;2022-07-29T04:08:43;12.90;99.90
56256;DHT22;57229;51.432;-2.598;2022-07-29T04:11:09;12.90;99.90
56256;DHT22;57229;51.432;-2.598;2022-07-29T04:13:34;12.80;99.90
56256;DHT22;57229;51.432;-2.598;2022-07-29T04:16:00;12.80;99.90
56256;DHT22;57229;51.432;-2.598;2022-07-29T04:18:26;12.70;99.90
56256;DHT22;57229;51.432;-2.598;2022-07-29T04:20:52;12.70;99.90
56256;DHT22;57229;51.432;-2.598;2022-07-29T04:23:18;12.70;99.90
56256;DHT22;57229;51.432;-2.598;2022-07-29T04:25:43;12.70;99.90
56256;DHT22;57229;51.432;-2.598;2022-07-29T04:28:09;12.60;99.90
56256;DHT22;57229;51.432;-2.598;2022-07-29T04:30:37;12.60;99.90
56256;DHT22;57229;51.432;-2.598;2022-07-29T04:33:05;12.60;99.90
56256;DHT22;57229;51.432;-2.598;2022-07-29T04:35:35;12.60;99.90
56256;DHT22;57229;51.432;-2.598;2022-07-29T04:38:01;12.70;99.90
56256;DHT22;57229;51.432;-2.598;2022-07-29T04:40:28;12.70;99.90
56256;DHT22;57229;51.432;-2.598;2022-07-29T04:42:54;12.60;99.90
56256;DHT22;57229;51.432;-2.598;2022-07-29T04:45:20;12.60;99.90
56256;DHT22;57229;51.432;-2.598;2022-07-29T04:47:45;12.60;99.90
56256;DHT22;57229;51.432;-2.598;2022-07-29T04:50:14;12.50;99.90
56256;DHT22;57229;51.432;-2.598;2022-07-29T04:52:40;12.50;99.90
56256;DHT22;57229;51.432;-2.598;2022-07-29T04:55:06;12.60;99.90
56256;DHT22;57229;51.432;-2.598;2022-07-29T04:57:32;12.60;99.90
56256;DHT22;57229;51.432;-2.598;2022-07-29T04:59:58;12.60;99.90
56256;DHT22;57229;51.432;-2.598;2022-07-29T05:02:23;12.60;99.90
56256;DHT22;57229;51.432;-2.598;2022-07-29T05:04:49;12.60;99.90
56256;DHT22;57229;51.432;-2.598;2022-07-29T05:07:15;12.60;99.90
56256;DHT22;57229;51.432;-2.598;2022-07-29T05:09:41;12.60;99.90
56256;DHT22;57229;51.432;-2.598;2022-07-29T05:12:06;12.70;99.90
56256;DHT22;57229;51.432;-2.598;2022-07-29T05:14:32;12.70;99.90
56256;DHT22;57229;51.432;-2.598;2022-07-29T05:16:58;12.70;99.90
56256;DHT22;57229;51.432;-2.598;2022-07-29T05:19:24;12.70;99.90
56256;DHT22;57229;51.432;-2.598;2022-07-29T05:21:50;12.70;99.90
56256;DHT22;57229;51.432;-2.598;2022-07-29T05:24:16;12.70;99.90
56256;DHT22;57229;51.432;-2.598;2022-07-29T05:26:42;12.80;99.90
56256;DHT22;57229;51.432;-2.598;2022-07-29T05:29:08;12.80;99.90
56256;DHT22;57229;51.432;-2.598;2022-07-29T05:31:33;12.90;99.90
56256;DHT22;57229;51.432;-2.598;2022-07-29T05:33:59;12.90;99.90
56256;DHT22;57229;51.432;-2.598;2022-07-29T05:36:25;12.90;99.90
56256;DHT22;57229;51.432;-2.598;2022-07-29T05:38:51;13.00;99.90
56256;DHT22;57229;51.432;-2.598;2022-07-29T05:41:19;13.10;99.90
56256;DHT22;57229;51.432;-2.598;2022-07-29T05:43:45;13.20;99.90
56256;DHT22;57229;51.432;-2.598;2022-07-29T05:46:11;13.20;99.90
56256;DHT22;57229;51.432;-2.598;2022-07-29T05:48:37;13.30;99.90
56256;DHT22;57229;51.432;-2.598;2022-07-29T05:51:02;13.40;99.90
56256;DHT22;57229;51.432;-2.598;2022-07-29T05:53:28;13.50;99.90
56256;DHT22;57229;51.432;-2.598;2022-07-29T05:55:54;13.60;99.90
56256;DHT22;57229;51.432;-2.598;2022-07-29T05:58:20;13.70;99.90
56256;DHT22;57229;51.432;-2.598;2022-07-29T06:00:46;13.80;99.90
56256;DHT22;57229;51.432;-2.598;2022-07-29T06:03:11;13.90;99.90
56256;DHT22;57229;51.432;-2.598;2022-07-29T06:05:37;14.00;99.90
56256;DHT22;57229;51.432;-2.598;2022-07-29T06:08:03;14.10;99.90
56256;DHT22;57229;51.432;-2.598;2022-07-29T06:10:32;14.20;99.90
56256;DHT22;57229;51.432;-2.598;2022-07-29T06:12:59;14.30;99.90
56256;DHT22;57229;51.432;-2.598;2022-07-29T06:15:25;14.40;99.90
56256;DHT22;57229;51.432;-2.598;2022-07-29T06:17:51;14.50;99.90
56256;DHT22;57229;51.432;-2.598;2022-07-29T06:20:18;14.70;99.90
56256;DHT22;57229;51.432;-2.598;2022-07-29T06:22:43;14.80;99.90
56256;DHT22;57229;51.432;-2.598;2022-07-29T06:25:09;15.00;99.90
56256;DHT22;57229;51.432;-2.598;2022-07-29T06:27:35;15.10;99.90
56256;DHT22;57229;51.432;-2.598;2022-07-29T06:30:01;15.30;99.90
56256;DHT22;57229;51.432;-2.598;2022-07-29T06:32:27;15.40;99.90
56256;DHT22;57229;51.432;-2.598;2022-07-29T06:34:53;15.50;99.90
56256;DHT22;57229;51.432;-2.598;2022-07-29T06:37:18;15.70;99.90
56256;DHT22;57229;51.432;-2.598;2022-07-29T06:39:44;15.80;99.90
56256;DHT22;57229;51.432;-2.598;2022-07-29T06:42:10;15.90;99.90
56256;DHT22;57229;51.432;-2.598;2022-07-29T06:44:36;16.00;99.90
56256;DHT22;57229;51.432;-2.598;2022-07-29T06:47:02;16.10;99.90
56256;DHT22;57229;51.432;-2.598;2022-07-29T06:49:28;16.30;99.90
56256;DHT22;57229;51.432;-2.598;2022-07-29T06:51:54;16.50;99.90
56256;DHT22;57229;51.432;-2.598;2022-07-29T06:54:20;16.60;99.90
56256;DHT22;57229;51.432;-2.598;2022-07-29T06:56:47;16.70;99.90
56256;DHT22;57229;51.432;-2.598;2022-07-29T06:59:13;16.90;99.90
56256;DHT22;57229;51.432;-2.598;2022-07-29T07:01:41;17.10;99.90
56256;DHT22;57229;51.432;-2.598;2022-07-29T07:04:07;17.20;99.90
56256;DHT22;57229;51.432;-2.598;2022-07-29T07:06:34;17.40;99.90
56256;DHT22;57229;51.432;-2.598;2022-07-29T07:09:00;17.60;99.90
56256;DHT22;57229;51.432;-2.598;2022-07-29T07:11:26;17.70;99.90
56256;DHT22;57229;51.432;-2.598;2022-07-29T07:13:52;17.80;99.90
56256;DHT22;57229;51.432;-2.598;2022-07-29T07:16:18;17.90;99.90
56256;DHT22;57229;51.432;-2.598;2022-07-29T07:18:44;18.00;99.90
56256;DHT22;57229;51.432;-2.598;2022-07-29T07:21:11;18.00;99.90
56256;DHT22;57229;51.432;-2.598;2022-07-29T07:23:37;18.20;99.90
56256;DHT22;57229;51.432;-2.598;2022-07-29T07:26:03;18.40;99.00
56256;DHT22;57229;51.432;-2.598;2022-07-29T07:28:30;18.40;98.80
56256;DHT22;57229;51.432;-2.598;2022-07-29T07:30:56;18.50;99.10
56256;DHT22;57229;51.432;-2.598;2022-07-29T07:33:21;18.60;99.10
56256;DHT22;57229;51.432;-2.598;2022-07-29T07:35:47;18.70;98.80
56256;DHT22;57229;51.432;-2.598;2022-07-29T07:38:13;18.80;98.60
56256;DHT22;57229;51.432;-2.598;2022-07-29T07:40:39;18.90;98.60
56256;DHT22;57229;51.432;-2.598;2022-07-29T07:43:05;19.20;97.70
56256;DHT22;57229;51.432;-2.598;2022-07-29T07:45:31;19.60;97.40
56256;DHT22;57229;51.432;-2.598;2022-07-29T07:48:02;20.10;96.10
56256;DHT22;57229;51.432;-2.598;2022-07-29T07:50:28;20.50;94.60
56256;DHT22;57229;51.432;-2.598;2022-07-29T07:52:55;21.10;94.20
56256;DHT22;57229;51.432;-2.598;2022-07-29T07:55:24;21.50;92.90
56256;DHT22;57229;51.432;-2.598;2022-07-29T07:57:50;21.30;93.10
56256;DHT22;57229;51.432;-2.598;2022-07-29T08:00:16;20.70;94.00
56256;DHT22;57229;51.432;-2.598;2022-07-29T08:02:42;20.60;94.60
56256;DHT22;57229;51.432;-2.598;2022-07-29T08:05:09;20.60;95.30
56256;DHT22;57229;51.432;-2.598;2022-07-29T08:07:35;20.60;95.40
56256;DHT22;57229;51.432;-2.598;2022-07-29T08:10:02;20.60;94.40
56256;DHT22;57229;51.432;-2.598;2022-07-29T08:12:28;20.40;94.00
56256;DHT22;57229;51.432;-2.598;2022-07-29T08:14:54;20.30;94.70
56256;DHT22;57229;51.432;-2.598;2022-07-29T08:17:19;20.50;95.70
56256;DHT22;57229;51.432;-2.598;2022-07-29T08:19:45;20.60;94.90
56256;DHT22;57229;51.432;-2.598;2022-07-29T08:22:13;20.70;93.90
56256;DHT22;57229;51.432;-2.598;2022-07-29T08:24:39;20.70;93.40
56256;DHT22;57229;51.432;-2.598;2022-07-29T08:27:21;20.50;93.50
56256;DHT22;57229;51.432;-2.598;2022-07-29T08:29:47;20.60;93.30
56256;DHT22;57229;51.432;-2.598;2022-07-29T08:32:13;20.70;92.10
56256;DHT22;57229;51.432;-2.598;2022-07-29T08:34:38;20.80;92.30
56256;DHT22;57229;51.432;-2.598;2022-07-29T08:37:04;21.00;92.20
56256;DHT22;57229;51.432;-2.598;2022-07-29T08:39:30;21.20;91.60
56256;DHT22;57229;51.432;-2.598;2022-07-29T08:41:56;21.60;91.10
56256;DHT22;57229;51.432;-2.598;2022-07-29T08:44:21;22.20;90.90
56256;DHT22;57229;51.432;-2.598;2022-07-29T08:46:48;23.00;89.40
56256;DHT22;57229;51.432;-2.598;2022-07-29T08:49:15;23.70;86.40
56256;DHT22;57229;51.432;-2.598;2022-07-29T08:51:41;24.60;84.10
56256;DHT22;57229;51.432;-2.598;2022-07-29T08:54:09;25.20;80.70
56256;DHT22;57229;51.432;-2.598;2022-07-29T08:56:36;25.80;78.40
56256;DHT22;57229;51.432;-2.598;2022-07-29T08:59:05;26.20;77.80
56256;DHT22;57229;51.432;-2.598;2022-07-29T09:01:32;26.80;77.30
56256;DHT22;57229;51.432;-2.598;2022-07-29T09:03:59;27.70;75.80
56256;DHT22;57229;51.432;-2.598;2022-07-29T09:06:31;28.50;74.00
56256;DHT22;57229;51.432;-2.598;2022-07-29T09:08:59;29.10;70.10
56256;DHT22;57229;51.432;-2.598;2022-07-29T09:11:26;29.40;71.30
56256;DHT22;57229;51.432;-2.598;2022-07-29T09:13:51;29.80;69.00
56256;DHT22;57229;51.432;-2.598;2022-07-29T09:16:17;30.40;68.00
56256;DHT22;57229;51.432;-2.598;2022-07-29T09:18:45;30.80;66.70
56256;DHT22;57229;51.432;-2.598;2022-07-29T09:21:16;31.20;65.20
56256;DHT22;57229;51.432;-2.598;2022-07-29T09:26:34;31.60;63.30
56256;DHT22;57229;51.432;-2.598;2022-07-29T09:29:14;31.60;63.10
56256;DHT22;57229;51.432;-2.598;2022-07-29T09:31:42;32.00;61.10
56256;DHT22;57229;51.432;-2.598;2022-07-29T09:34:09;32.00;61.00
56256;DHT22;57229;51.432;-2.598;2022-07-29T09:36:46;32.10;60.20
56256;DHT22;57229;51.432;-2.598;2022-07-29T09:39:13;31.80;60.20
56256;DHT22;57229;51.432;-2.598;2022-07-29T09:41:49;31.20;62.00
56256;DHT22;57229;51.432;-2.598;2022-07-29T09:44:16;31.40;63.20
56256;DHT22;57229;51.432;-2.598;2022-07-29T09:47:01;32.10;61.50
56256;DHT22;57229;51.432;-2.598;2022-07-29T09:49:36;33.10;59.90
56256;DHT22;57229;51.432;-2.598;2022-07-29T09:52:15;33.20;59.10
56256;DHT22;57229;51.432;-2.598;2022-07-29T09:54:41;33.60;58.40
56256;DHT22;57229;51.432;-2.598;2022-07-29T09:57:08;33.70;57.40
56256;DHT22;57229;51.432;-2.598;2022-07-29T09:59:38;34.10;57.50
56256;DHT22;57229;51.432;-2.598;2022-07-29T10:02:14;34.30;56.60
56256;DHT22;57229;51.432;-2.598;2022-07-29T10:04:41;34.50;56.00
56256;DHT22;57229;51.432;-2.598;2022-07-29T10:07:07;34.60;54.30
56256;DHT22;57229;51.432;-2.598;2022-07-29T10:09:33;34.30;54.80
56256;DHT22;57229;51.432;-2.598;2022-07-29T10:12:12;34.00;55.70
56256;DHT22;57229;51.432;-2.598;2022-07-29T10:14:42;33.90;56.30
56256;DHT22;57229;51.432;-2.598;2022-07-29T10:17:09;34.40;54.40
56256;DHT22;57229;51.432;-2.598;2022-07-29T10:19:36;33.70;55.70
56256;DHT22;57229;51.432;-2.598;2022-07-29T10:22:07;33.00;55.10
56256;DHT22;57229;51.432;-2.598;2022-07-29T10:24:34;33.20;57.50
56256;DHT22;57229;51.432;-2.598;2022-07-29T10:27:02;33.90;56.00
56256;DHT22;57229;51.432;-2.598;2022-07-29T10:29:29;34.70;54.80
56256;DHT22;57229;51.432;-2.598;2022-07-29T10:34:57;35.20;53.60
56256;DHT22;57229;51.432;-2.598;2022-07-29T10:39:58;36.00;50.40
56256;DHT22;57229;51.432;-2.598;2022-07-29T10:42:28;35.30;52.30
56256;DHT22;57229;51.432;-2.598;2022-07-29T10:44:54;35.20;50.60
56256;DHT22;57229;51.432;-2.598;2022-07-29T10:47:24;35.20;50.10
56256;DHT22;57229;51.432;-2.598;2022-07-29T10:50:01;35.30;50.80
56256;DHT22;57229;51.432;-2.598;2022-07-29T10:55:38;34.70;52.00
56256;DHT22;57229;51.432;-2.598;2022-07-29T10:58:17;34.10;53.50
56256;DHT22;57229;51.432;-2.598;2022-07-29T11:00:47;34.70;54.30
56256;DHT22;57229;51.432;-2.598;2022-07-29T11:03:45;35.50;51.40
56256;DHT22;57229;51.432;-2.598;2022-07-29T11:06:12;36.10;50.40
56256;DHT22;57229;51.432;-2.598;2022-07-29T11:08:38;36.10;50.10
56256;DHT22;57229;51.432;-2.598;2022-07-29T11:13:47;36.70;50.10
56256;DHT22;57229;51.432;-2.598;2022-07-29T11:16:16;37.00;49.50
56256;DHT22;57229;51.432;-2.598;2022-07-29T11:21:36;37.30;48.50
56256;DHT22;57229;51.432;-2.598;2022-07-29T11:24:58;37.30;47.00
56256;DHT22;57229;51.432;-2.598;2022-07-29T11:28:19;36.80;47.60
56256;DHT22;57229;51.432;-2.598;2022-07-29T11:30:57;37.90;47.00
56256;DHT22;57229;51.432;-2.598;2022-07-29T11:33:31;38.60;44.90
56256;DHT22;57229;51.432;-2.598;2022-07-29T11:36:11;38.70;44.70
56256;DHT22;57229;51.432;-2.598;2022-07-29T11:38:37;39.00;44.00
56256;DHT22;57229;51.432;-2.598;2022-07-29T11:41:19;38.90;44.40
56256;DHT22;57229;51.432;-2.598;2022-07-29T11:43:55;38.40;44.90
56256;DHT22;57229;51.432;-2.598;2022-07-29T11:49:07;38.30;44.10
56256;DHT22;57229;51.432;-2.598;2022-07-29T11:51:35;37.10;45.50
56256;DHT22;57229;51.432;-2.598;2022-07-29T11:54:01;36.90;46.10
56256;DHT22;57229;51.432;-2.598;2022-07-29T11:56:31;36.60;46.90
56256;DHT22;57229;51.432;-2.598;2022-07-29T11:59:05;36.60;46.00
56256;DHT22;57229;51.432;-2.598;2022-07-29T12:01:31;37.50;45.50
56256;DHT22;57229;51.432;-2.598;2022-07-29T12:04:07;37.60;43.70
56256;DHT22;57229;51.432;-2.598;2022-07-29T12:06:34;37.60;44.00
56256;DHT22;57229;51.432;-2.598;2022-07-29T12:09:00;37.20;44.40
56256;DHT22;57229;51.432;-2.598;2022-07-29T12:11:26;37.40;44.90
56256;DHT22;57229;51.432;-2.598;2022-07-29T12:13:52;37.40;43.80
56256;DHT22;57229;51.432;-2.598;2022-07-29T12:16:21;37.00;44.00
56256;DHT22;57229;51.432;-2.598;2022-07-29T12:19:01;36.90;44.10
56256;DHT22;57229;51.432;-2.598;2022-07-29T12:21:29;37.40;43.90
56256;DHT22;57229;51.432;-2.598;2022-07-29T12:23:55;37.60;44.30
56256;DHT22;57229;51.432;-2.598;2022-07-29T12:29:43;39.10;43.90
56256;DHT22;57229;51.432;-2.598;2022-07-29T12:32:09;39.30;44.30
56256;DHT22;57229;51.432;-2.598;2022-07-29T12:34:35;39.50;42.90
56256;DHT22;57229;51.432;-2.598;2022-07-29T12:37:01;39.60;42.40
56256;DHT22;57229;51.432;-2.598;2022-07-29T12:39:28;39.20;42.30
56256;DHT22;57229;51.432;-2.598;2022-07-29T12:41:55;38.70;42.40
56256;DHT22;57229;51.432;-2.598;2022-07-29T12:44:21;38.30;42.90
56256;DHT22;57229;51.432;-2.598;2022-07-29T12:47:01;38.40;42.20
56256;DHT22;57229;51.432;-2.598;2022-07-29T12:49:27;38.10;42.60
56256;DHT22;57229;51.432;-2.598;2022-07-29T12:51:53;36.50;43.90
56256;DHT22;57229;51.432;-2.598;2022-07-29T12:54:18;35.30;45.50
56256;DHT22;57229;51.432;-2.598;2022-07-29T12:56:44;35.60;45.30
56256;DHT22;57229;51.432;-2.598;2022-07-29T12:59:22;35.90;45.50
56256;DHT22;57229;51.432;-2.598;2022-07-29T13:01:49;36.70;44.90
56256;DHT22;57229;51.432;-2.598;2022-07-29T13:04:30;38.00;45.00
56256;DHT22;57229;51.432;-2.598;2022-07-29T13:07:06;39.60;42.90
56256;DHT22;57229;51.432;-2.598;2022-07-29T13:09:38;39.40;42.30
56256;DHT22;57229;51.432;-2.598;2022-07-29T13:12:08;38.40;43.30
56256;DHT22;57229;51.432;-2.598;2022-07-29T13:14:48;39.30;43.60
56256;DHT22;57229;51.432;-2.598;2022-07-29T13:17:19;39.10;43.10
56256;DHT22;57229;51.432;-2.598;2022-07-29T13:20:05;39.80;42.80
56256;DHT22;57229;51.432;-2.598;2022-07-29T13:22:34;40.50;41.50
56256;DHT22;57229;51.432;-2.598;2022-07-29T13:25:01;40.90;41.50
56256;DHT22;57229;51.432;-2.598;2022-07-29T13:27:34;40.50;42.10
56256;DHT22;57229;51.432;-2.598;2022-07-29T13:30:04;41.00;41.00
56256;DHT22;57229;51.432;-2.598;2022-07-29T13:32:31;40.00;41.90
56256;DHT22;57229;51.432;-2.598;2022-07-29T13:35:01;40.30;41.70
56256;DHT22;57229;51.432;-2.598;2022-07-29T13:37:28;40.90;40.50
56256;DHT22;57229;51.432;-2.598;2022-07-29T13:39:55;41.00;40.60
56256;DHT22;57229;51.432;-2.598;2022-07-29T13:42:22;40.10;41.20
56256;DHT22;57229;51.432;-2.598;2022-07-29T13:44:48;39.20;42.10
56256;DHT22;57229;51.432;-2.598;2022-07-29T13:47:16;38.50;42.30
56256;DHT22;57229;51.432;-2.598;2022-07-29T13:49:42;37.80;42.40
56256;DHT22;57229;51.432;-2.598;2022-07-29T13:52:07;37.90;42.70
56256;DHT22;57229;51.432;-2.598;2022-07-29T13:54:33;38.80;41.30
56256;DHT22;57229;51.432;-2.598;2022-07-29T13:57:03;39.20;41.50
56256;DHT22;57229;51.432;-2.598;2022-07-29T13:59:29;39.40;43.10
56256;DHT22;57229;51.432;-2.598;2022-07-29T14:01:54;40.50;41.70
56256;DHT22;57229;51.432;-2.598;2022-07-29T14:04:20;40.50;40.40
56256;DHT22;57229;51.432;-2.598;2022-07-29T14:06:47;40.40;39.90
56256;DHT22;57229;51.432;-2.598;2022-07-29T14:09:12;40.10;40.20
56256;DHT22;57229;51.432;-2.598;2022-07-29T14:11:38;39.90;40.50
56256;DHT22;57229;51.432;-2.598;2022-07-29T14:14:06;40.00;40.20
56256;DHT22;57229;51.432;-2.598;2022-07-29T14:16:45;39.10;40.70
56256;DHT22;57229;51.432;-2.598;2022-07-29T14:19:38;39.10;40.50
56256;DHT22;57229;51.432;-2.598;2022-07-29T14:22:21;38.30;41.50
56256;DHT22;57229;51.432;-2.598;2022-07-29T14:25:31;37.20;41.80
56256;DHT22;57229;51.432;-2.598;2022-07-29T14:27:50;37.80;41.50
56256;DHT22;57229;51.432;-2.598;2022-07-29T14:30:18;37.00;41.70
56256;DHT22;57229;51.432;-2.598;2022-07-29T14:32:44;36.40;42.50
56256;DHT22;57229;51.432;-2.598;2022-07-29T14:35:09;37.20;42.00
56256;DHT22;57229;51.432;-2.598;2022-07-29T14:37:36;38.20;42.30
56256;DHT22;57229;51.432;-2.598;2022-07-29T14:40:03;38.80;41.70
56256;DHT22;57229;51.432;-2.598;2022-07-29T14:42:30;39.40;41.70
56256;DHT22;57229;51.432;-2.598;2022-07-29T14:44:58;39.50;42.10
56256;DHT22;57229;51.432;-2.598;2022-07-29T14:47:24;38.30;44.20
56256;DHT22;57229;51.432;-2.598;2022-07-29T14:49:50;35.80;47.30
56256;DHT22;57229;51.432;-2.598;2022-07-29T14:52:15;34.80;49.10
56256;DHT22;57229;51.432;-2.598;2022-07-29T14:54:41;34.40;50.10
56256;DHT22;57229;51.432;-2.598;2022-07-29T14:57:07;35.20;49.60
56256;DHT22;57229;51.432;-2.598;2022-07-29T14:59:32;35.80;49.00
56256;DHT22;57229;51.432;-2.598;2022-07-29T15:01:58;35.40;48.80
56256;DHT22;57229;51.432;-2.598;2022-07-29T15:04:24;34.80;50.20
56256;DHT22;57229;51.432;-2.598;2022-07-29T15:06:49;34.50;49.60
56256;DHT22;57229;51.432;-2.598;2022-07-29T15:09:15;35.20;49.90
56256;DHT22;57229;51.432;-2.598;2022-07-29T15:11:41;35.90;48.70
56256;DHT22;57229;51.432;-2.598;2022-07-29T15:14:07;36.10;48.90
56256;DHT22;57229;51.432;-2.598;2022-07-29T15:17:07;35.00;49.80
56256;DHT22;57229;51.432;-2.598;2022-07-29T15:20:10;34.60;49.00
56256;DHT22;57229;51.432;-2.598;2022-07-29T15:22:37;34.10;50.40
56256;DHT22;57229;51.432;-2.598;2022-07-29T15:25:04;34.20;50.30
56256;DHT22;57229;51.432;-2.598;2022-07-29T15:27:30;34.70;50.40
56256;DHT22;57229;51.432;-2.598;2022-07-29T15:29:56;34.80;49.60
56256;DHT22;57229;51.432;-2.598;2022-07-29T15:32:22;35.10;49.30
56256;DHT22;57229;51.432;-2.598;2022-07-29T15:34:48;34.80;48.80
56256;DHT22;57229;51.432;-2.598;2022-07-29T15:37:14;33.50;50.80
56256;DHT22;57229;51.432;-2.598;2022-07-29T15:39:39;33.10;51.10
56256;DHT22;57229;51.432;-2.598;2022-07-29T15:42:05;33.20;50.10
56256;DHT22;57229;51.432;-2.598;2022-07-29T15:44:31;33.20;50.20
56256;DHT22;57229;51.432;-2.598;2022-07-29T15:46:57;32.90;50.30
56256;DHT22;57229;51.432;-2.598;2022-07-29T15:49:34;33.20;49.50
56256;DHT22;57229;51.432;-2.598;2022-07-29T15:52:02;33.40;50.00
56256;DHT22;57229;51.432;-2.598;2022-07-29T15:54:28;33.10;49.60
56256;DHT22;57229;51.432;-2.598;2022-07-29T15:56:55;32.40;51.00
56256;DHT22;57229;51.432;-2.598;2022-07-29T15:59:21;31.40;52.20
56256;DHT22;57229;51.432;-2.598;2022-07-29T16:01:47;30.60;52.60